sensor_id;sensor_type;location;lat;lon;timestamp;pressure;altitude;pressure_sealevel;temperature;humidity
9225;BME280;4647;48.072;11.616;2023-02-28T00:01:45;95669.56;;;-4.34;75.69
9225;BME280;4647;48.072;11.616;2023-02-28T00:04:14;95663.81;;;-4.36;75.75
9225;BME280;4647;48.072;11.616;2023-02-28T00:06:42;95674.09;;;-4.34;75.29
9225;BME280;4647;48.072;11.616;2023-02-28T00:09:11;95668.47;;;-4.41;75.93
9225;BME280;4647;48.072;11.616;2023-02-28T00:11:39;95671.25;;;-4.46;76.04
9225;BME280;4647;48.072;11.616;2023-02-28T00:14:07;95663.41;;;-4.51;76.31
9225;BME280;4647;48.072;11.616;2023-02-28T00:16:38;95663.63;;;-4.48;75.85
9225;BME280;4647;48.072;11.616;2023-02-28T00:19:07;95656.88;;;-4.54;76.22
9225;BME280;4647;48.072;11.616;2023-02-28T00:21:38;95660.25;;;-4.62;76.54
9225;BME280;4647;48.072;11.616;2023-02-28T00:24:08;95650.78;;;-4.63;76.48
9225;BME280;4647;48.072;11.616;2023-02-28T00:26:36;95651.25;;;-4.61;76.63
9225;BME280;4647;48.072;11.616;2023-02-28T00:29:05;95653.75;;;-4.56;76.58
9225;BME280;4647;48.072;11.616;2023-02-28T00:31:34;95643.63;;;-4.63;76.47
9225;BME280;4647;48.072;11.616;2023-02-28T00:34:05;95643.94;;;-4.64;76.46
9225;BME280;4647;48.072;11.616;2023-02-28T00:36:33;95641.94;;;-4.58;76.27
9225;BME280;4647;48.072;11.616;2023-02-28T00:39:02;95632.88;;;-4.66;76.22
9225;BME280;4647;48.072;11.616;2023-02-28T00:41:30;95646.53;;;-4.73;77.10
9225;BME280;4647;48.072;11.616;2023-02-28T00:43:59;95644.78;;;-4.77;77.47
9225;BME280;4647;48.072;11.616;2023-02-28T00:46:28;95654.53;;;-4.86;77.81
9225;BME280;4647;48.072;11.616;2023-02-28T00:48:56;95651.13;;;-4.87;77.93
9225;BME280;4647;48.072;11.616;2023-02-28T00:51:27;95643.84;;;-4.81;77.99
9225;BME280;4647;48.072;11.616;2023-02-28T00:53:55;95628.28;;;-4.83;77.33
9225;BME280;4647;48.072;11.616;2023-02-28T00:56:24;95635.72;;;-4.85;77.34
9225;BME280;4647;48.072;11.616;2023-02-28T00:58:52;95644.09;;;-4.91;77.89
9225;BME280;4647;48.072;11.616;2023-02-28T01:01:21;95646.25;;;-4.93;78.18
9225;BME280;4647;48.072;11.616;2023-02-28T01:03:49;95643.63;;;-4.93;78.12
9225;BME280;4647;48.072;11.616;2023-02-28T01:06:17;95647.03;;;-4.93;78.37
9225;BME280;4647;48.072;11.616;2023-02-28T01:08:48;95644.09;;;-4.91;77.95
9225;BME280;4647;48.072;11.616;2023-02-28T01:11:17;95625.19;;;-5.07;78.42
9225;BME280;4647;48.072;11.616;2023-02-28T01:13:46;95630.56;;;-4.90;78.35
9225;BME280;4647;48.072;11.616;2023-02-28T01:16:15;95636.09;;;-5.00;78.32
9225;BME280;4647;48.072;11.616;2023-02-28T01:18:43;95632.97;;;-5.02;78.69
9225;BME280;4647;48.072;11.616;2023-02-28T01:21:13;95631.00;;;-4.97;78.32
9225;BME280;4647;48.072;11.616;2023-02-28T01:23:48;95629.38;;;-5.06;78.75
9225;BME280;4647;48.072;11.616;2023-02-28T01:26:18;95625.66;;;-5.05;78.78
9225;BME280;4647;48.072;11.616;2023-02-28T01:28:48;95628.91;;;-5.08;79.17
9225;BME280;4647;48.072;11.616;2023-02-28T01:31:17;95620.50;;;-5.10;79.30
9225;BME280;4647;48.072;11.616;2023-02-28T01:33:46;95625.34;;;-5.04;79.16
9225;BME280;4647;48.072;11.616;2023-02-28T01:36:17;95624.84;;;-5.14;79.06
9225;BME280;4647;48.072;11.616;2023-02-28T01:38:49;95618.41;;;-5.22;79.68
9225;BME280;4647;48.072;11.616;2023-02-28T01:41:19;95621.03;;;-5.22;79.63
9225;BME280;4647;48.072;11.616;2023-02-28T01:43:58;95616.47;;;-5.30;80.04
9225;BME280;4647;48.072;11.616;2023-02-28T01:46:29;95612.63;;;-5.24;79.91
9225;BME280;4647;48.072;11.616;2023-02-28T01:49:02;95615.09;;;-5.28;80.42
9225;BME280;4647;48.072;11.616;2023-02-28T01:51:37;95611.38;;;-5.27;80.26
9225;BME280;4647;48.072;11.616;2023-02-28T01:54:16;95605.78;;;-5.25;80.00
9225;BME280;4647;48.072;11.616;2023-02-28T01:56:54;95609.47;;;-5.35;80.34
9225;BME280;4647;48.072;11.616;2023-02-28T01:59:27;95611.94;;;-5.38;80.69
9225;BME280;4647;48.072;11.616;2023-02-28T02:01:58;95611.16;;;-5.39;80.73
9225;BME280;4647;48.072;11.616;2023-02-28T02:04:32;95598.72;;;-5.38;81.05
9225;BME280;4647;48.072;11.616;2023-02-28T02:07:02;95601.38;;;-5.38;80.61
9225;BME280;4647;48.072;11.616;2023-02-28T02:09:34;95601.84;;;-5.36;80.81
9225;BME280;4647;48.072;11.616;2023-02-28T02:12:12;95605.19;;;-5.44;80.82
9225;BME280;4647;48.072;11.616;2023-02-28T02:14:57;95607.34;;;-5.46;80.86
9225;BME280;4647;48.072;11.616;2023-02-28T02:17:32;95608.13;;;-5.46;81.08
9225;BME280;4647;48.072;11.616;2023-02-28T02:20:29;95602.63;;;-5.58;81.57
9225;BME280;4647;48.072;11.616;2023-02-28T02:23:31;95575.19;;;-5.71;81.38
9225;BME280;4647;48.072;11.616;2023-02-28T02:26:16;95599.38;;;-5.55;81.75
9225;BME280;4647;48.072;11.616;2023-02-28T02:29:14;95600.16;;;-5.54;81.50
9225;BME280;4647;48.072;11.616;2023-02-28T02:32:20;95594.69;;;-5.58;81.88
9225;BME280;4647;48.072;11.616;2023-02-28T02:35:02;95595.59;;;-5.63;82.11
9225;BME280;4647;48.072;11.616;2023-02-28T02:37:36;95596.06;;;-5.61;82.28
9225;BME280;4647;48.072;11.616;2023-02-28T02:40:13;95593.13;;;-5.59;81.88
9225;BME280;4647;48.072;11.616;2023-02-28T02:42:48;95597.47;;;-5.63;82.07
9225;BME280;4647;48.072;11.616;2023-02-28T02:45:25;95592.53;;;-5.56;81.85
9225;BME280;4647;48.072;11.616;2023-02-28T02:47:56;95592.88;;;-5.71;82.05
9225;BME280;4647;48.072;11.616;2023-02-28T02:50:33;95589.16;;;-5.48;81.83
9225;BME280;4647;48.072;11.616;2023-02-28T02:53:03;95590.38;;;-5.54;82.11
9225;BME280;4647;48.072;11.616;2023-02-28T02:55:36;95579.66;;;-5.58;82.21
9225;BME280;4647;48.072;11.616;2023-02-28T02:58:09;95588.41;;;-5.48;82.15
9225;BME280;4647;48.072;11.616;2023-02-28T03:00:42;95587.78;;;-5.45;81.86
9225;BME280;4647;48.072;11.616;2023-02-28T03:03:12;95578.56;;;-5.57;82.46
9225;BME280;4647;48.072;11.616;2023-02-28T03:05:48;95580.59;;;-5.53;82.11
9225;BME280;4647;48.072;11.616;2023-02-28T03:08:16;95567.94;;;-5.65;82.57
9225;BME280;4647;48.072;11.616;2023-02-28T03:10:48;95583.13;;;-5.48;82.18
9225;BME280;4647;48.072;11.616;2023-02-28T03:13:43;95584.31;;;-5.54;82.70
9225;BME280;4647;48.072;11.616;2023-02-28T03:16:28;95584.56;;;-5.42;82.45
9225;BME280;4647;48.072;11.616;2023-02-28T03:19:11;95584.56;;;-5.42;82.24
9225;BME280;4647;48.072;11.616;2023-02-28T03:21:57;95581.16;;;-5.43;82.49
9225;BME280;4647;48.072;11.616;2023-02-28T03:24:33;95577.13;;;-5.40;82.41
9225;BME280;4647;48.072;11.616;2023-02-28T03:27:09;95577.84;;;-5.48;82.48
9225;BME280;4647;48.072;11.616;2023-02-28T03:29:42;95583.91;;;-5.48;82.57
9225;BME280;4647;48.072;11.616;2023-02-28T03:32:17;95581.16;;;-5.43;82.72
9225;BME280;4647;48.072;11.616;2023-02-28T03:34:52;95585.16;;;-5.45;82.75
9225;BME280;4647;48.072;11.616;2023-02-28T03:37:28;95587.78;;;-5.45;82.50
9225;BME280;4647;48.072;11.616;2023-02-28T03:40:02;95584.50;;;-5.51;82.76
9225;BME280;4647;48.072;11.616;2023-02-28T03:42:36;95588.00;;;-5.42;82.69
9225;BME280;4647;48.072;11.616;2023-02-28T03:45:11;95592.13;;;-5.49;83.07
9225;BME280;4647;48.072;11.616;2023-02-28T03:47:46;95588.28;;;-5.43;82.90
9225;BME280;4647;48.072;11.616;2023-02-28T03:50:18;95592.78;;;-5.44;83.09
9225;BME280;4647;48.072;11.616;2023-02-28T03:52:55;95588.00;;;-5.42;82.74
9225;BME280;4647;48.072;11.616;2023-02-28T03:55:28;95586.22;;;-5.46;83.01
9225;BME280;4647;48.072;11.616;2023-02-28T03:58:01;95592.41;;;-5.51;83.60
9225;BME280;4647;48.072;11.616;2023-02-28T04:00:35;95600.72;;;-5.44;83.40
9225;BME280;4647;48.072;11.616;2023-02-28T04:03:06;95595.13;;;-5.42;83.34
9225;BME280;4647;48.072;11.616;2023-02-28T04:05:46;95597.22;;;-5.53;83.21
9225;BME280;4647;48.072;11.616;2023-02-28T04:08:20;95602.50;;;-5.53;83.72
9225;BME280;4647;48.072;11.616;2023-02-28T04:10:55;95606.81;;;-5.57;83.63
9225;BME280;4647;48.072;11.616;2023-02-28T04:13:25;95612.41;;;-5.59;83.94
9225;BME280;4647;48.072;11.616;2023-02-28T04:15:54;95625.16;;;-5.52;83.85
9225;BME280;4647;48.072;11.616;2023-02-28T04:18:22;95610.53;;;-5.58;83.64
9225;BME280;4647;48.072;11.616;2023-02-28T04:20:51;95617.97;;;-5.60;83.79
9225;BME280;4647;48.072;11.616;2023-02-28T04:23:22;95624.03;;;-5.60;84.07
9225;BME280;4647;48.072;11.616;2023-02-28T04:25:50;95620.19;;;-5.53;83.75
9225;BME280;4647;48.072;11.616;2023-02-28T04:28:19;95627.16;;;-5.58;84.05
9225;BME280;4647;48.072;11.616;2023-02-28T04:30:47;95627.63;;;-5.56;84.44
9225;BME280;4647;48.072;11.616;2023-02-28T04:33:21;95625.53;;;-5.45;83.74
9225;BME280;4647;48.072;11.616;2023-02-28T04:35:58;95628.00;;;-5.48;84.22
9225;BME280;4647;48.072;11.616;2023-02-28T04:38:32;95623.41;;;-5.43;83.89
9225;BME280;4647;48.072;11.616;2023-02-28T04:41:01;95621.72;;;-5.39;83.84
9225;BME280;4647;48.072;11.616;2023-02-28T04:43:30;95621.41;;;-5.37;83.79
9225;BME280;4647;48.072;11.616;2023-02-28T04:46:02;95629.03;;;-5.36;83.70
9225;BME280;4647;48.072;11.616;2023-02-28T04:48:33;95625.00;;;-5.33;83.83
9225;BME280;4647;48.072;11.616;2023-02-28T04:51:04;95626.09;;;-5.34;83.67
9225;BME280;4647;48.072;11.616;2023-02-28T04:53:37;95630.03;;;-5.23;83.72
9225;BME280;4647;48.072;11.616;2023-02-28T04:56:07;95632.88;;;-5.19;83.72
9225;BME280;4647;48.072;11.616;2023-02-28T04:58:35;95632.09;;;-5.20;83.48
9225;BME280;4647;48.072;11.616;2023-02-28T05:01:06;95631.91;;;-5.23;83.18
9225;BME280;4647;48.072;11.616;2023-02-28T05:03:40;95633.97;;;-5.20;82.99
9225;BME280;4647;48.072;11.616;2023-02-28T05:06:10;95640.91;;;-5.25;83.57
9225;BME280;4647;48.072;11.616;2023-02-28T05:08:41;95656.16;;;-5.21;83.64
9225;BME280;4647;48.072;11.616;2023-02-28T05:11:15;95645.78;;;-5.18;83.61
9225;BME280;4647;48.072;11.616;2023-02-28T05:13:44;95640.06;;;-5.11;83.69
9225;BME280;4647;48.072;11.616;2023-02-28T05:16:13;95653.41;;;-4.94;83.36
9225;BME280;4647;48.072;11.616;2023-02-28T05:18:42;95647.09;;;-4.84;82.96
9225;BME280;4647;48.072;11.616;2023-02-28T05:21:32;95646.25;;;-4.71;82.95
9225;BME280;4647;48.072;11.616;2023-02-28T05:24:05;95645.94;;;-4.70;82.17
9225;BME280;4647;48.072;11.616;2023-02-28T05:26:35;95650.94;;;-4.59;81.90
9225;BME280;4647;48.072;11.616;2023-02-28T05:29:04;95646.31;;;-4.54;81.39
9225;BME280;4647;48.072;11.616;2023-02-28T05:31:33;95645.44;;;-4.41;81.36
9225;BME280;4647;48.072;11.616;2023-02-28T05:34:02;95646.06;;;-4.35;81.08
9225;BME280;4647;48.072;11.616;2023-02-28T05:36:31;95656.41;;;-4.16;80.62
9225;BME280;4647;48.072;11.616;2023-02-28T05:38:59;95653.16;;;-4.13;80.35
9225;BME280;4647;48.072;11.616;2023-02-28T05:41:31;95655.81;;;-4.13;80.43
9225;BME280;4647;48.072;11.616;2023-02-28T05:43:59;95656.44;;;-4.08;80.28
9225;BME280;4647;48.072;11.616;2023-02-28T05:46:27;95652.59;;;-4.02;79.96
9225;BME280;4647;48.072;11.616;2023-02-28T05:48:56;95653.22;;;-3.96;79.81
9225;BME280;4647;48.072;11.616;2023-02-28T05:51:26;95659.13;;;-3.99;79.84
9225;BME280;4647;48.072;11.616;2023-02-28T05:53:54;95650.41;;;-3.99;80.06
9225;BME280;4647;48.072;11.616;2023-02-28T05:56:22;95664.13;;;-3.89;79.74
9225;BME280;4647;48.072;11.616;2023-02-28T05:58:53;95659.00;;;-3.85;79.45
9225;BME280;4647;48.072;11.616;2023-02-28T06:01:25;95663.66;;;-3.91;79.70
9225;BME280;4647;48.072;11.616;2023-02-28T06:03:58;95668.97;;;-3.82;79.80
9225;BME280;4647;48.072;11.616;2023-02-28T06:06:28;95668.53;;;-3.76;79.52
9225;BME280;4647;48.072;11.616;2023-02-28T06:08:59;95672.44;;;-3.73;79.15
9225;BME280;4647;48.072;11.616;2023-02-28T06:11:28;95672.44;;;-3.64;78.83
9225;BME280;4647;48.072;11.616;2023-02-28T06:14:00;95682.25;;;-3.56;78.80
9225;BME280;4647;48.072;11.616;2023-02-28T06:16:30;95675.38;;;-3.75;78.58
9225;BME280;4647;48.072;11.616;2023-02-28T06:19:00;95683.22;;;-3.52;78.62
9225;BME280;4647;48.072;11.616;2023-02-28T06:21:29;95676.31;;;-3.71;78.43
9225;BME280;4647;48.072;11.616;2023-02-28T06:23:58;95689.13;;;-3.38;78.20
9225;BME280;4647;48.072;11.616;2023-02-28T06:26:27;95692.88;;;-3.39;77.59
9225;BME280;4647;48.072;11.616;2023-02-28T06:28:58;95690.25;;;-3.30;77.56
9225;BME280;4647;48.072;11.616;2023-02-28T06:31:28;95693.19;;;-3.32;77.44
9225;BME280;4647;48.072;11.616;2023-02-28T06:33:56;95693.38;;;-3.28;77.24
9225;BME280;4647;48.072;11.616;2023-02-28T06:36:25;95700.19;;;-3.36;77.04
9225;BME280;4647;48.072;11.616;2023-02-28T06:38:53;95694.63;;;-3.26;77.45
9225;BME280;4647;48.072;11.616;2023-02-28T06:41:23;95690.41;;;-3.27;77.00
9225;BME280;4647;48.072;11.616;2023-02-28T06:43:52;95703.03;;;-3.06;76.55
9225;BME280;4647;48.072;11.616;2023-02-28T06:46:23;95703.50;;;-3.04;76.76
9225;BME280;4647;48.072;11.616;2023-02-28T06:48:51;95715.66;;;-3.03;76.28
9225;BME280;4647;48.072;11.616;2023-02-28T06:51:20;95709.13;;;-2.97;76.09
9225;BME280;4647;48.072;11.616;2023-02-28T06:56:25;95701.31;;;-2.94;75.96
9225;BME280;4647;48.072;11.616;2023-02-28T06:58:53;95710.97;;;-2.89;75.91
9225;BME280;4647;48.072;11.616;2023-02-28T07:01:25;95721.56;;;-2.72;75.49
9225;BME280;4647;48.072;11.616;2023-02-28T07:03:54;95719.88;;;-2.76;75.17
9225;BME280;4647;48.072;11.616;2023-02-28T07:06:23;95727.81;;;-2.68;74.92
9225;BME280;4647;48.072;11.616;2023-02-28T07:08:53;95724.84;;;-2.66;74.76
9225;BME280;4647;48.072;11.616;2023-02-28T07:11:23;95730.28;;;-2.63;74.94
9225;BME280;4647;48.072;11.616;2023-02-28T07:13:53;95730.75;;;-2.69;75.29
9225;BME280;4647;48.072;11.616;2023-02-28T07:16:25;95730.13;;;-2.49;74.87
9225;BME280;4647;48.072;11.616;2023-02-28T07:18:54;95733.38;;;-2.43;74.52
9225;BME280;4647;48.072;11.616;2023-02-28T07:21:23;95732.91;;;-2.45;74.64
9225;BME280;4647;48.072;11.616;2023-02-28T07:23:51;95734.47;;;-2.44;74.69
9225;BME280;4647;48.072;11.616;2023-02-28T07:26:20;95730.56;;;-2.30;74.30
9225;BME280;4647;48.072;11.616;2023-02-28T07:28:49;95718.09;;;-2.47;73.78
9225;BME280;4647;48.072;11.616;2023-02-28T07:31:19;95736.19;;;-2.31;74.07
9225;BME280;4647;48.072;11.616;2023-02-28T07:33:50;95739.78;;;-2.36;73.94
9225;BME280;4647;48.072;11.616;2023-02-28T07:36:19;95739.47;;;-2.34;73.47
9225;BME280;4647;48.072;11.616;2023-02-28T07:38:48;95736.19;;;-2.31;73.54
9225;BME280;4647;48.072;11.616;2023-02-28T07:41:19;95730.88;;;-2.31;73.36
9225;BME280;4647;48.072;11.616;2023-02-28T07:43:49;95725.56;;;-2.40;74.11
9225;BME280;4647;48.072;11.616;2023-02-28T07:46:17;95727.41;;;-2.23;72.98
9225;BME280;4647;48.072;11.616;2023-02-28T07:48:46;95725.84;;;-2.24;72.90
9225;BME280;4647;48.072;11.616;2023-02-28T07:51:17;95728.34;;;-2.19;72.91
9225;BME280;4647;48.072;11.616;2023-02-28T07:53:46;95730.38;;;-2.25;73.00
9225;BME280;4647;48.072;11.616;2023-02-28T07:56:14;95733.00;;;-2.16;72.46
9225;BME280;4647;48.072;11.616;2023-02-28T07:58:43;95736.13;;;-2.14;72.12
9225;BME280;4647;48.072;11.616;2023-02-28T08:01:11;95740.03;;;-2.20;72.46
9225;BME280;4647;48.072;11.616;2023-02-28T08:03:40;95742.97;;;-2.13;72.27
9225;BME280;4647;48.072;11.616;2023-02-28T08:06:19;95732.69;;;-2.06;72.15
9225;BME280;4647;48.072;11.616;2023-02-28T08:08:48;95746.78;;;-1.76;71.30
9225;BME280;4647;48.072;11.616;2023-02-28T08:11:17;95743.84;;;-1.83;71.78
9225;BME280;4647;48.072;11.616;2023-02-28T08:13:46;95749.81;;;-1.95;71.69
9225;BME280;4647;48.072;11.616;2023-02-28T08:16:15;95745.91;;;-1.89;71.45
9225;BME280;4647;48.072;11.616;2023-02-28T08:18:47;95751.81;;;-1.92;71.25
9225;BME280;4647;48.072;11.616;2023-02-28T08:21:20;95751.44;;;-2.11;71.42
9225;BME280;4647;48.072;11.616;2023-02-28T08:23:49;95747.16;;;-1.95;71.71
9225;BME280;4647;48.072;11.616;2023-02-28T08:26:18;95742.75;;;-1.91;71.13
9225;BME280;4647;48.072;11.616;2023-02-28T08:28:46;95751.34;;;-1.94;71.47
9225;BME280;4647;48.072;11.616;2023-02-28T08:31:16;95750.66;;;-1.73;70.62
9225;BME280;4647;48.072;11.616;2023-02-28T08:33:45;95741.13;;;-1.74;70.16
9225;BME280;4647;48.072;11.616;2023-02-28T08:36:18;95750.91;;;-1.87;70.66
9225;BME280;4647;48.072;11.616;2023-02-28T08:38:46;95758.88;;;-1.96;71.09
9225;BME280;4647;48.072;11.616;2023-02-28T08:41:15;95758.56;;;-1.94;71.20
9225;BME280;4647;48.072;11.616;2023-02-28T08:43:44;95757.44;;;-1.84;71.08
9225;BME280;4647;48.072;11.616;2023-02-28T08:46:13;95763.31;;;-1.70;70.52
9225;BME280;4647;48.072;11.616;2023-02-28T08:48:42;95761.88;;;-1.59;70.20
9225;BME280;4647;48.072;11.616;2023-02-28T08:51:11;95770.09;;;-1.52;70.31
9225;BME280;4647;48.072;11.616;2023-02-28T08:53:44;95773.00;;;-1.74;70.58
9225;BME280;4647;48.072;11.616;2023-02-28T08:56:17;95771.06;;;-1.57;69.98
9225;BME280;4647;48.072;11.616;2023-02-28T08:58:46;95772.19;;;-1.66;69.99
9225;BME280;4647;48.072;11.616;2023-02-28T09:01:16;95758.63;;;-1.65;70.07
9225;BME280;4647;48.072;11.616;2023-02-28T09:03:46;95776.91;;;-1.72;69.97
9225;BME280;4647;48.072;11.616;2023-02-28T09:06:16;95780.41;;;-1.50;69.83
9225;BME280;4647;48.072;11.616;2023-02-28T09:08:49;95784.75;;;-1.46;69.64
9225;BME280;4647;48.072;11.616;2023-02-28T09:11:18;95785.50;;;-1.37;69.05
9225;BME280;4647;48.072;11.616;2023-02-28T09:13:47;95785.25;;;-1.14;69.09
9225;BME280;4647;48.072;11.616;2023-02-28T09:16:16;95782.28;;;-1.21;69.01
9225;BME280;4647;48.072;11.616;2023-02-28T09:18:45;95787.78;;;-1.18;68.89
9225;BME280;4647;48.072;11.616;2023-02-28T09:21:16;95781.94;;;-1.41;69.20
9225;BME280;4647;48.072;11.616;2023-02-28T09:23:49;95784.78;;;-1.16;69.01
9225;BME280;4647;48.072;11.616;2023-02-28T09:26:20;95780.50;;;-1.09;68.23
9225;BME280;4647;48.072;11.616;2023-02-28T09:28:49;95791.31;;;-0.84;67.19
9225;BME280;4647;48.072;11.616;2023-02-28T09:31:20;95792.50;;;-1.03;68.07
9225;BME280;4647;48.072;11.616;2023-02-28T09:33:50;95800.13;;;-0.93;67.79
9225;BME280;4647;48.072;11.616;2023-02-28T09:36:19;95800.97;;;-0.80;66.96
9225;BME280;4647;48.072;11.616;2023-02-28T09:38:50;95801.72;;;-1.00;67.69
9225;BME280;4647;48.072;11.616;2023-02-28T09:41:21;95803.97;;;-0.60;66.57
9225;BME280;4647;48.072;11.616;2023-02-28T09:43:54;95802.06;;;-0.60;66.36
9225;BME280;4647;48.072;11.616;2023-02-28T09:46:31;95816.72;;;-0.75;66.67
9225;BME280;4647;48.072;11.616;2023-02-28T09:49:04;95814.81;;;-0.66;67.35
9225;BME280;4647;48.072;11.616;2023-02-28T09:51:40;95810.75;;;-0.72;66.82
9225;BME280;4647;48.072;11.616;2023-02-28T09:54:19;95822.97;;;-0.91;67.58
9225;BME280;4647;48.072;11.616;2023-02-28T09:56:50;95828.47;;;-1.64;69.71
9225;BME280;4647;48.072;11.616;2023-02-28T09:59:41;95829.72;;;-1.32;69.52
9225;BME280;4647;48.072;11.616;2023-02-28T10:02:21;95828.00;;;-0.99;67.83
9225;BME280;4647;48.072;11.616;2023-02-28T10:04:56;95825.81;;;-0.76;66.71
9225;BME280;4647;48.072;11.616;2023-02-28T10:07:39;95800.59;;;-0.70;66.48
9225;BME280;4647;48.072;11.616;2023-02-28T10:10:22;95827.00;;;-0.44;65.67
9225;BME280;4647;48.072;11.616;2023-02-28T10:12:53;95825.56;;;-0.41;65.25
9225;BME280;4647;48.072;11.616;2023-02-28T10:15:24;95833.66;;;-0.17;65.55
9225;BME280;4647;48.072;11.616;2023-02-28T10:17:57;95833.59;;;-0.29;65.24
9225;BME280;4647;48.072;11.616;2023-02-28T10:20:28;95833.03;;;-0.55;66.36
9225;BME280;4647;48.072;11.616;2023-02-28T10:23:03;95820.94;;;-0.11;64.98
9225;BME280;4647;48.072;11.616;2023-02-28T10:25:37;95821.09;;;0.05;64.85
9225;BME280;4647;48.072;11.616;2023-02-28T10:28:10;95827.31;;;0.09;64.57
9225;BME280;4647;48.072;11.616;2023-02-28T10:30:42;95839.59;;;0.34;63.79
9225;BME280;4647;48.072;11.616;2023-02-28T10:33:23;95836.19;;;0.01;65.00
9225;BME280;4647;48.072;11.616;2023-02-28T10:35:52;95837.16;;;0.29;63.66
9225;BME280;4647;48.072;11.616;2023-02-28T10:38:23;95848.63;;;0.09;64.72
9225;BME280;4647;48.072;11.616;2023-02-28T10:41:03;95842.91;;;-0.02;65.03
9225;BME280;4647;48.072;11.616;2023-02-28T10:43:32;95833.91;;;-0.10;64.74
9225;BME280;4647;48.072;11.616;2023-02-28T10:46:03;95844.38;;;0.28;64.10
9225;BME280;4647;48.072;11.616;2023-02-28T10:48:34;95837.16;;;0.41;63.27
9225;BME280;4647;48.072;11.616;2023-02-28T10:51:04;95851.56;;;0.73;62.56
9225;BME280;4647;48.072;11.616;2023-02-28T10:53:37;95855.19;;;0.69;62.64
9225;BME280;4647;48.072;11.616;2023-02-28T10:56:16;95859.75;;;0.68;63.12
9225;BME280;4647;48.072;11.616;2023-02-28T10:58:49;95855.00;;;0.86;61.95
9225;BME280;4647;48.072;11.616;2023-02-28T11:01:20;95856.22;;;0.88;61.55
9225;BME280;4647;48.072;11.616;2023-02-28T11:03:50;95754.44;;;0.25;61.45
9225;BME280;4647;48.072;11.616;2023-02-28T11:06:22;95855.69;;;1.19;61.16
9225;BME280;4647;48.072;11.616;2023-02-28T11:08:53;95865.09;;;0.92;62.30
9225;BME280;4647;48.072;11.616;2023-02-28T11:11:26;95857.44;;;1.03;61.63
9225;BME280;4647;48.072;11.616;2023-02-28T11:14:02;95852.22;;;1.19;61.09
9225;BME280;4647;48.072;11.616;2023-02-28T11:16:34;95854.31;;;0.89;60.67
9225;BME280;4647;48.072;11.616;2023-02-28T11:19:04;95851.13;;;0.71;61.91
9225;BME280;4647;48.072;11.616;2023-02-28T11:21:37;95854.22;;;1.10;61.22
9225;BME280;4647;48.072;11.616;2023-02-28T11:24:16;95858.88;;;1.49;60.30
9225;BME280;4647;48.072;11.616;2023-02-28T11:26:50;95850.81;;;1.62;59.88
9225;BME280;4647;48.072;11.616;2023-02-28T11:29:21;95815.03;;;1.78;58.77
9225;BME280;4647;48.072;11.616;2023-02-28T11:32:12;95845.72;;;2.12;58.17
9225;BME280;4647;48.072;11.616;2023-02-28T11:34:43;95847.97;;;2.10;58.45
9225;BME280;4647;48.072;11.616;2023-02-28T11:37:13;95852.19;;;2.55;56.97
9225;BME280;4647;48.072;11.616;2023-02-28T11:39:43;95840.22;;;2.65;56.83
9225;BME280;4647;48.072;11.616;2023-02-28T11:42:27;95825.53;;;2.59;57.05
9225;BME280;4647;48.072;11.616;2023-02-28T11:45:19;95836.69;;;2.76;56.62
9225;BME280;4647;48.072;11.616;2023-02-28T11:47:56;95835.41;;;2.86;56.58
9225;BME280;4647;48.072;11.616;2023-02-28T11:50:38;95826.84;;;3.12;55.75
9225;BME280;4647;48.072;11.616;2023-02-28T11:53:19;95825.91;;;2.89;55.77
9225;BME280;4647;48.072;11.616;2023-02-28T11:55:54;95828.41;;;2.66;57.04
9225;BME280;4647;48.072;11.616;2023-02-28T11:58:36;95818.06;;;3.31;55.55
9225;BME280;4647;48.072;11.616;2023-02-28T12:01:21;95823.81;;;3.14;55.92
9225;BME280;4647;48.072;11.616;2023-02-28T12:04:00;95824.88;;;2.77;55.95
9225;BME280;4647;48.072;11.616;2023-02-28T12:06:35;95823.03;;;2.50;57.72
9225;BME280;4647;48.072;11.616;2023-02-28T12:09:19;95819.00;;;2.40;57.19
9225;BME280;4647;48.072;11.616;2023-02-28T12:11:55;95810.19;;;2.40;58.55
9225;BME280;4647;48.072;11.616;2023-02-28T12:14:49;95819.56;;;2.18;59.01
9225;BME280;4647;48.072;11.616;2023-02-28T12:17:30;95811.13;;;2.47;58.67
9225;BME280;4647;48.072;11.616;2023-02-28T12:20:15;95815.34;;;2.17;57.87
9225;BME280;4647;48.072;11.616;2023-02-28T12:22:50;95816.75;;;1.99;58.74
9225;BME280;4647;48.072;11.616;2023-02-28T12:25:41;95808.78;;;1.87;59.33
9225;BME280;4647;48.072;11.616;2023-02-28T12:28:15;95813.16;;;1.79;59.10
9225;BME280;4647;48.072;11.616;2023-02-28T12:30:52;95796.41;;;2.10;58.96
9225;BME280;4647;48.072;11.616;2023-02-28T12:33:26;95800.47;;;2.04;58.49
9225;BME280;4647;48.072;11.616;2023-02-28T12:35:59;95798.41;;;1.69;59.32
9225;BME280;4647;48.072;11.616;2023-02-28T12:38:33;95794.34;;;1.47;60.65
9225;BME280;4647;48.072;11.616;2023-02-28T12:41:05;95798.75;;;1.56;60.99
9225;BME280;4647;48.072;11.616;2023-02-28T12:43:42;95789.63;;;1.84;59.78
9225;BME280;4647;48.072;11.616;2023-02-28T12:46:18;95797.66;;;1.84;60.29
9225;BME280;4647;48.072;11.616;2023-02-28T12:48:52;95791.34;;;1.77;60.03
9225;BME280;4647;48.072;11.616;2023-02-28T12:51:23;95788.09;;;1.83;60.20
9225;BME280;4647;48.072;11.616;2023-02-28T12:54:05;95798.00;;;1.83;60.21
9225;BME280;4647;48.072;11.616;2023-02-28T12:56:43;95774.97;;;1.78;60.16
9225;BME280;4647;48.072;11.616;2023-02-28T12:59:23;95787.94;;;1.92;59.77
9225;BME280;4647;48.072;11.616;2023-02-28T13:02:32;95789.06;;;1.91;60.27
9225;BME280;4647;48.072;11.616;2023-02-28T13:05:19;95793.16;;;1.89;60.15
9225;BME280;4647;48.072;11.616;2023-02-28T13:08:18;95788.69;;;2.36;59.23
9225;BME280;4647;48.072;11.616;2023-02-28T13:10:53;95782.66;;;2.55;58.35
9225;BME280;4647;48.072;11.616;2023-02-28T13:13:23;95788.59;;;2.33;59.28
9225;BME280;4647;48.072;11.616;2023-02-28T13:16:03;95792.59;;;2.55;58.67
9225;BME280;4647;48.072;11.616;2023-02-28T13:18:45;95791.00;;;3.01;56.65
9225;BME280;4647;48.072;11.616;2023-02-28T13:21:24;95789.72;;;3.30;56.30
9225;BME280;4647;48.072;11.616;2023-02-28T13:24:02;95775.78;;;3.21;57.21
9225;BME280;4647;48.072;11.616;2023-02-28T13:29:31;95791.69;;;3.14;57.63
9225;BME280;4647;48.072;11.616;2023-02-28T13:32:19;95780.41;;;3.24;56.94
9225;BME280;4647;48.072;11.616;2023-02-28T13:35:15;95793.47;;;3.25;56.36
9225;BME280;4647;48.072;11.616;2023-02-28T13:38:24;95785.41;;;2.90;57.37
9225;BME280;4647;48.072;11.616;2023-02-28T13:40:53;95793.88;;;2.92;56.92
9225;BME280;4647;48.072;11.616;2023-02-28T13:46:33;95795.16;;;2.98;58.02
9225;BME280;4647;48.072;11.616;2023-02-28T13:49:19;95792.66;;;2.90;57.98
9225;BME280;4647;48.072;11.616;2023-02-28T13:51:52;95790.31;;;3.04;57.28
9225;BME280;4647;48.072;11.616;2023-02-28T13:54:31;95792.22;;;3.03;57.51